<?xml version='1.0' encoding='UTF-8'?><gpx version="1.1" creator="JPX - https://github.com/jenetics/jpx" xmlns="http://www.topografix.com/GPX/1/1"><trk><trkseg><trkpt lat="41.5971105771115" lon="1.972963061146047"><ele>433.00000000000006</ele><time>2026-05-03T08:55:06Z</time></trkpt><trkpt lat="41.5970287910624" lon="1.9729915866417713"><ele>433.0</ele><time>2026-05-03T08:55:08Z</time></trkpt><trkpt lat="41.59692682883836" lon="1.9729662754688762"><ele>433.0</ele><time>2026-05-03T08:55:11Z</time></trkpt><trkpt lat="41.59686961660383" lon="1.9729227989478118"><ele>433.0</ele><time>2026-05-03T08:55:13Z</time></trkpt><trkpt lat="41.596807679514754" lon="1.9728830345283725"><ele>433.00000000000006</ele><time>2026-05-03T08:55:15Z</time></trkpt><trkpt lat="41.59673280595268" lon="1.9728100226377416"><ele>433.0</ele><time>2026-05-03T08:55:18Z</time></trkpt><trkpt lat="41.59666079329047" lon="1.9727485411690528"><ele>434.83333333333337</ele><time>2026-05-03T08:55:20Z</time></trkpt><trkpt lat="41.59659547781187" lon="1.9727333125440514"><ele>436.6666666666667</ele><time>2026-05-03T08:55:21Z</time></trkpt><trkpt lat="41.596528573308966" lon="1.9727332639913484"><ele>438.5</ele><time>2026-05-03T08:55:22Z</time></trkpt><trkpt lat="41.59645012570406" lon="1.9727439024715734"><ele>440.33333333333337</ele><time>2026-05-03T08:55:24Z</time></trkpt><trkpt lat="41.596348876976684" lon="1.9726253880911084"><ele>442.1666666666667</ele><time>2026-05-03T08:55:28Z</time></trkpt><trkpt lat="41.59629565256447" lon="1.9725715571546092"><ele>444.0</ele><time>2026-05-03T08:55:29Z</time></trkpt><trkpt lat="41.59619374487207" lon="1.9725219849789066"><ele>445.5</ele><time>2026-05-03T08:55:30Z</time></trkpt><trkpt lat="41.59610731679027" lon="1.972479847157372"><ele>447.0</ele><time>2026-05-03T08:55:32Z</time></trkpt><trkpt lat="41.59601789436496" lon="1.9724882989706989"><ele>448.5</ele><time>2026-05-03T08:55:34Z</time></trkpt><trkpt lat="41.59594060032785" lon="1.972531128528101"><ele>450.0</ele><time>2026-05-03T08:55:36Z</time></trkpt><trkpt lat="41.5958658337282" lon="1.9724885483834518"><ele>451.5</ele><time>2026-05-03T08:55:40Z</time></trkpt><trkpt lat="41.59583848413775" lon="1.9724020861852565"><ele>453.0</ele><time>2026-05-03T08:55:43Z</time></trkpt><trkpt lat="41.59577421644025" lon="1.9723485082045233"><ele>457.3333333333333</ele><time>2026-05-03T08:55:47Z</time></trkpt><trkpt lat="41.59570878033245" lon="1.972331614923976"><ele>461.66666666666663</ele><time>2026-05-03T08:55:49Z</time></trkpt><trkpt lat="41.595639908208874" lon="1.9722679036817554"><ele>466.0</ele><time>2026-05-03T08:55:50Z</time></trkpt><trkpt lat="41.59557691160788" lon="1.9722565859356127"><ele>470.3333333333333</ele><time>2026-05-03T08:55:52Z</time></trkpt><trkpt lat="41.595527100401796" lon="1.9721970989909732"><ele>474.66666666666663</ele><time>2026-05-03T08:55:55Z</time></trkpt><trkpt lat="41.595437543826904" lon="1.972121372130908"><ele>479.0</ele><time>2026-05-03T08:55:58Z</time></trkpt><trkpt lat="41.5953821301521" lon="1.9720714675380426"><ele>478.79999999999995</ele><time>2026-05-03T08:56:00Z</time></trkpt><trkpt lat="41.595223933849844" lon="1.9720075529372425"><ele>478.59999999999997</ele><time>2026-05-03T08:56:01Z</time></trkpt><trkpt lat="41.595180325563824" lon="1.971933903922539"><ele>478.4</ele><time>2026-05-03T08:56:02Z</time></trkpt><trkpt lat="41.595144493690526" lon="1.9717970063269379"><ele>478.2</ele><time>2026-05-03T08:56:04Z</time></trkpt><trkpt lat="41.595135609791434" lon="1.9717076668988422"><ele>478.0</ele><time>2026-05-03T08:56:06Z</time></trkpt><trkpt lat="41.595164046341004" lon="1.971612138476679"><ele>481.50000000000006</ele><time>2026-05-03T08:56:09Z</time></trkpt><trkpt lat="41.5952026279876" lon="1.9715331507708451"><ele>485.0</ele><time>2026-05-03T08:56:12Z</time></trkpt><trkpt lat="41.59522893533826" lon="1.9714547974938939"><ele>488.5</ele><time>2026-05-03T08:56:19Z</time></trkpt><trkpt lat="41.595249927732226" lon="1.9713534295452675"><ele>492.0</ele><time>2026-05-03T08:57:11.999Z</time></trkpt><trkpt lat="41.59528636538164" lon="1.9712354429190668"><ele>495.50000000000006</ele><time>2026-05-03T08:57:14.999Z</time></trkpt><trkpt lat="41.59535114253518" lon="1.9711483030203016"><ele>499.0</ele><time>2026-05-03T08:57:17.999Z</time></trkpt><trkpt lat="41.59543484320051" lon="1.9711497769030575"><ele>499.83333333333337</ele><time>2026-05-03T08:57:19.999Z</time></trkpt><trkpt lat="41.59551513319484" lon="1.9711038225882926"><ele>500.6666666666667</ele><time>2026-05-03T08:57:21.999Z</time></trkpt><trkpt lat="41.59558618648325" lon="1.9710438939496413"><ele>501.5</ele><time>2026-05-03T08:57:23.999Z</time></trkpt><trkpt lat="41.59568058748728" lon="1.971031006282597"><ele>502.33333333333337</ele><time>2026-05-03T08:57:26.999Z</time></trkpt><trkpt lat="41.59574225613276" lon="1.9709992223953607"><ele>503.1666666666667</ele><time>2026-05-03T08:57:28.999Z</time></trkpt><trkpt lat="41.59577511182828" lon="1.970917540774248"><ele>504.0</ele><time>2026-05-03T08:57:32.999Z</time></trkpt><trkpt lat="41.59579477039156" lon="1.9708236667587524"><ele>508.0</ele><time>2026-05-03T08:57:35.999Z</time></trkpt><trkpt lat="41.59585915749719" lon="1.970705266433183"><ele>512.0</ele><time>2026-05-03T08:57:38.999Z</time></trkpt><trkpt lat="41.59591536367684" lon="1.970634214777021"><ele>516.0</ele><time>2026-05-03T08:57:40.999Z</time></trkpt><trkpt lat="41.59595209835902" lon="1.9705351717582646"><ele>520.0</ele><time>2026-05-03T08:57:42.999Z</time></trkpt><trkpt lat="41.59598188782099" lon="1.9704022096593319"><ele>524.0</ele><time>2026-05-03T08:57:45.999Z</time></trkpt><trkpt lat="41.59594961848251" lon="1.9702975699488925"><ele>524.0</ele><time>2026-05-03T08:57:48.999Z</time></trkpt><trkpt lat="41.595901245484534" lon="1.9702057956991015"><ele>524.0</ele><time>2026-05-03T08:57:51.999Z</time></trkpt><trkpt lat="41.59587533790515" lon="1.9701154806057526"><ele>524.0</ele><time>2026-05-03T08:57:53.999Z</time></trkpt><trkpt lat="41.59586565288497" lon="1.9699960624370447"><ele>524.0</ele><time>2026-05-03T08:57:56.999Z</time></trkpt><trkpt lat="41.595868931279625" lon="1.9699096851776792"><ele>524.0</ele><time>2026-05-03T08:57:59.999Z</time></trkpt><trkpt lat="41.59584009221945" lon="1.9698188189952135"><ele>524.0</ele><time>2026-05-03T08:58:08.999Z</time></trkpt><trkpt lat="41.59577960227757" lon="1.969702922550064"><ele>526.8333333333333</ele><time>2026-05-03T08:58:11.999Z</time></trkpt><trkpt lat="41.5957343924035" lon="1.9696360330441214"><ele>529.6666666666666</ele><time>2026-05-03T08:58:13.999Z</time></trkpt><trkpt lat="41.59566511055742" lon="1.969517647342726"><ele>532.5</ele><time>2026-05-03T08:58:16.999Z</time></trkpt><trkpt lat="41.595620386504635" lon="1.9694303726116793"><ele>535.3333333333334</ele><time>2026-05-03T08:58:18.999Z</time></trkpt><trkpt lat="41.59558772210586" lon="1.9693405747406174"><ele>538.1666666666667</ele><time>2026-05-03T08:58:20.999Z</time></trkpt><trkpt lat="41.595552501338865" lon="1.9692632660319547"><ele>541.0</ele><time>2026-05-03T08:58:22.999Z</time></trkpt><trkpt lat="41.59550584115413" lon="1.9691566763810195"><ele>544.8</ele><time>2026-05-03T08:58:26.999Z</time></trkpt><trkpt lat="41.595445564515146" lon="1.9689157125907053"><ele>548.6</ele><time>2026-05-03T08:58:30.999Z</time></trkpt><trkpt lat="41.59541216069923" lon="1.9688068072850946"><ele>552.4</ele><time>2026-05-03T08:58:31.999Z</time></trkpt><trkpt lat="41.595405007281656" lon="1.9687072845093085"><ele>556.2</ele><time>2026-05-03T08:58:33.999Z</time></trkpt><trkpt lat="41.59543209307682" lon="1.9685962948016327"><ele>560.0</ele><time>2026-05-03T08:58:35.999Z</time></trkpt><trkpt lat="41.595459471098245" lon="1.9684750933388047"><ele>560.0</ele><time>2026-05-03T08:58:37.999Z</time></trkpt><trkpt lat="41.595445575695535" lon="1.9683821229563478"><ele>560.0</ele><time>2026-05-03T08:58:39.999Z</time></trkpt><trkpt lat="41.59543978232727" lon="1.968297385550023"><ele>560.0</ele><time>2026-05-03T08:58:44Z</time></trkpt><trkpt lat="41.59538706443498" lon="1.9682214691136317"><ele>560.0</ele><time>2026-05-03T08:58:47Z</time></trkpt><trkpt lat="41.59536991764304" lon="1.9681321173228081"><ele>560.0</ele><time>2026-05-03T08:58:49Z</time></trkpt><trkpt lat="41.595373251602695" lon="1.9680051488817272"><ele>560.0</ele><time>2026-05-03T08:58:51Z</time></trkpt><trkpt lat="41.59536183266377" lon="1.9679146483192043"><ele>560.0</ele><time>2026-05-03T08:58:55Z</time></trkpt><trkpt lat="41.5953542293914" lon="1.9678243508181574"><ele>563.1666666666666</ele><time>2026-05-03T08:59:00Z</time></trkpt><trkpt lat="41.5953726019626" lon="1.967729151382433"><ele>566.3333333333333</ele><time>2026-05-03T08:59:03Z</time></trkpt><trkpt lat="41.595448656029475" lon="1.9676313136721697"><ele>569.5</ele><time>2026-05-03T08:59:06Z</time></trkpt><trkpt lat="41.59550701640324" lon="1.9675702941240383"><ele>572.6666666666666</ele><time>2026-05-03T08:59:07Z</time></trkpt><trkpt lat="41.59555259018067" lon="1.967506645904511"><ele>575.8333333333334</ele><time>2026-05-03T08:59:08Z</time></trkpt><trkpt lat="41.59562224010757" lon="1.9673977109519176"><ele>579.0</ele><time>2026-05-03T08:59:10Z</time></trkpt><trkpt lat="41.59571105026505" lon="1.9673005560103596"><ele>581.3333333333334</ele><time>2026-05-03T08:59:12Z</time></trkpt><trkpt lat="41.59576378148671" lon="1.9672458992294957"><ele>583.6666666666666</ele><time>2026-05-03T08:59:13Z</time></trkpt><trkpt lat="41.59581004478937" lon="1.9671831840172809"><ele>586.0</ele><time>2026-05-03T08:59:14Z</time></trkpt><trkpt lat="41.59589701584988" lon="1.9671692912568404"><ele>588.3333333333333</ele><time>2026-05-03T08:59:16Z</time></trkpt><trkpt lat="41.59595931138375" lon="1.9671483718637144"><ele>590.6666666666666</ele><time>2026-05-03T08:59:19Z</time></trkpt><trkpt lat="41.59604668899018" lon="1.9670986147233918"><ele>593.0</ele><time>2026-05-03T08:59:22Z</time></trkpt><trkpt lat="41.59606429283596" lon="1.9669889868045825"><ele>593.0</ele><time>2026-05-03T08:59:25Z</time></trkpt><trkpt lat="41.59612420496876" lon="1.9668779410509312"><ele>593.0</ele><time>2026-05-03T08:59:27Z</time></trkpt><trkpt lat="41.59617490996418" lon="1.9667707945138913"><ele>593.0</ele><time>2026-05-03T08:59:28Z</time></trkpt><trkpt lat="41.59623179490321" lon="1.966686618274172"><ele>593.0</ele><time>2026-05-03T08:59:29Z</time></trkpt><trkpt lat="41.59623167531516" lon="1.9665750975800742"><ele>593.0</ele><time>2026-05-03T08:59:31Z</time></trkpt><trkpt lat="41.59625682199518" lon="1.9664446873173573"><ele>593.5</ele><time>2026-05-03T08:59:33Z</time></trkpt><trkpt lat="41.59631015713882" lon="1.9662980743797682"><ele>594.0</ele><time>2026-05-03T08:59:35Z</time></trkpt><trkpt lat="41.5963578354313" lon="1.966219947217824"><ele>594.5</ele><time>2026-05-03T08:59:36Z</time></trkpt><trkpt lat="41.596416701232165" lon="1.9661781469170605"><ele>595.0</ele><time>2026-05-03T08:59:37Z</time></trkpt><trkpt lat="41.5964818440877" lon="1.9661506508537523"><ele>595.5</ele><time>2026-05-03T08:59:38Z</time></trkpt><trkpt lat="41.596549856515026" lon="1.9661324787752215"><ele>596.0</ele><time>2026-05-03T08:59:39Z</time></trkpt><trkpt lat="41.59661717827167" lon="1.9661105999535717"><ele>596.0</ele><time>2026-05-03T08:59:40Z</time></trkpt><trkpt lat="41.5966825649611" lon="1.9660756729247828"><ele>596.0</ele><time>2026-05-03T08:59:41Z</time></trkpt><trkpt lat="41.596787988607964" lon="1.9659805633127796"><ele>596.0</ele><time>2026-05-03T08:59:43Z</time></trkpt><trkpt lat="41.59685717593294" lon="1.9659147700106825"><ele>596.0</ele><time>2026-05-03T08:59:44Z</time></trkpt><trkpt lat="41.59694059576216" lon="1.9658073919294963"><ele>596.0</ele><time>2026-05-03T08:59:46Z</time></trkpt><trkpt lat="41.59698490559727" lon="1.9657459354917974"><ele>595.2</ele><time>2026-05-03T08:59:47Z</time></trkpt><trkpt lat="41.59702228414657" lon="1.9656640887830101"><ele>594.4000000000001</ele><time>2026-05-03T08:59:48Z</time></trkpt><trkpt lat="41.59710495173944" lon="1.9655701757000654"><ele>593.6</ele><time>2026-05-03T08:59:50Z</time></trkpt><trkpt lat="41.597194701574935" lon="1.9656112856900885"><ele>592.8000000000001</ele><time>2026-05-03T08:59:52Z</time></trkpt><trkpt lat="41.597231414940836" lon="1.9655200806111346"><ele>592.0</ele><time>2026-05-03T08:59:55Z</time></trkpt><trkpt lat="41.59727909985908" lon="1.9652639977274822"><ele>592.0</ele><time>2026-05-03T08:59:58Z</time></trkpt><trkpt lat="41.59721545692518" lon="1.9651798036423314"><ele>592.0</ele><time>2026-05-03T08:59:59Z</time></trkpt><trkpt lat="41.597283974567496" lon="1.9650499169883613"><ele>592.0</ele><time>2026-05-03T09:00:01Z</time></trkpt><trkpt lat="41.59728189500512" lon="1.9649533983669734"><ele>592.0</ele><time>2026-05-03T09:00:03Z</time></trkpt><trkpt lat="41.597462359143584" lon="1.96474459373486"><ele>594.4285714285714</ele><time>2026-05-03T09:00:11Z</time></trkpt><trkpt lat="41.597485577579114" lon="1.9646624471272263"><ele>596.8571428571429</ele><time>2026-05-03T09:00:13Z</time></trkpt><trkpt lat="41.59756294723787" lon="1.964642429166881"><ele>599.2857142857142</ele><time>2026-05-03T09:00:16Z</time></trkpt><trkpt lat="41.59762544012889" lon="1.9646263566747169"><ele>601.7142857142858</ele><time>2026-05-03T09:00:18Z</time></trkpt><trkpt lat="41.59768926481468" lon="1.9645979426597868"><ele>604.1428571428571</ele><time>2026-05-03T09:00:19Z</time></trkpt><trkpt lat="41.59771309399193" lon="1.9644991364563047"><ele>606.5714285714286</ele><time>2026-05-03T09:00:22Z</time></trkpt><trkpt lat="41.59773673796952" lon="1.964409956236326"><ele>609.0</ele><time>2026-05-03T09:00:23Z</time></trkpt><trkpt lat="41.59775959879733" lon="1.9642542541540167"><ele>608.6</ele><time>2026-05-03T09:00:25Z</time></trkpt><trkpt lat="41.5977874989607" lon="1.9641312932499684"><ele>608.2</ele><time>2026-05-03T09:00:27Z</time></trkpt><trkpt lat="41.59783615911043" lon="1.9639933717805167"><ele>607.8000000000001</ele><time>2026-05-03T09:00:29Z</time></trkpt><trkpt lat="41.59787007083647" lon="1.9639045712224612"><ele>607.4</ele><time>2026-05-03T09:00:30Z</time></trkpt><trkpt lat="41.59791689845918" lon="1.9638193702502318"><ele>607.0</ele><time>2026-05-03T09:00:31Z</time></trkpt><trkpt lat="41.597974481484016" lon="1.96371537747542"><ele>607.0</ele><time>2026-05-03T09:00:32Z</time></trkpt><trkpt lat="41.598063856736566" lon="1.9635931824909305"><ele>607.0</ele><time>2026-05-03T09:00:33Z</time></trkpt><trkpt lat="41.59812453645721" lon="1.9634727385069"><ele>607.0</ele><time>2026-05-03T09:00:34Z</time></trkpt><trkpt lat="41.59818581077385" lon="1.9633928361438102"><ele>607.0</ele><time>2026-05-03T09:00:35Z</time></trkpt><trkpt lat="41.59823411164902" lon="1.963335686103136"><ele>607.0</ele><time>2026-05-03T09:00:36Z</time></trkpt><trkpt lat="41.59837313304647" lon="1.9633205793051178"><ele>607.4</ele><time>2026-05-03T09:00:38Z</time></trkpt><trkpt lat="41.598473990472954" lon="1.963313036599852"><ele>607.8000000000001</ele><time>2026-05-03T09:00:39Z</time></trkpt><trkpt lat="41.59855795183671" lon="1.96329682303704"><ele>608.2</ele><time>2026-05-03T09:00:40Z</time></trkpt><trkpt lat="41.59865087012365" lon="1.9632075903439752"><ele>608.6</ele><time>2026-05-03T09:00:42Z</time></trkpt><trkpt lat="41.59873553018829" lon="1.9631242736097398"><ele>609.0</ele><time>2026-05-03T09:00:44Z</time></trkpt><trkpt lat="41.59880366175567" lon="1.9630844822412847"><ele>609.25</ele><time>2026-05-03T09:00:45Z</time></trkpt><trkpt lat="41.598883658640695" lon="1.9630423281492242"><ele>609.5</ele><time>2026-05-03T09:00:46Z</time></trkpt><trkpt lat="41.598986781234444" lon="1.9629752284239148"><ele>609.75</ele><time>2026-05-03T09:00:47Z</time></trkpt><trkpt lat="41.599117893721036" lon="1.962872463807741"><ele>610.0</ele><time>2026-05-03T09:00:48Z</time></trkpt><trkpt lat="41.59924498311792" lon="1.9627279295033435"><ele>610.0</ele><time>2026-05-03T09:00:49Z</time></trkpt><trkpt lat="41.59938231629751" lon="1.962580194504974"><ele>610.0</ele><time>2026-05-03T09:00:50Z</time></trkpt><trkpt lat="41.599535958396444" lon="1.962423735501569"><ele>610.0</ele><time>2026-05-03T09:00:51Z</time></trkpt><trkpt lat="41.599657127413344" lon="1.9623321974326664"><ele>613.2</ele><time>2026-05-03T09:00:52Z</time></trkpt><trkpt lat="41.59976195791706" lon="1.9622335102820445"><ele>616.4</ele><time>2026-05-03T09:00:53Z</time></trkpt><trkpt lat="41.599816738226814" lon="1.962121804136137"><ele>619.6</ele><time>2026-05-03T09:00:54Z</time></trkpt><trkpt lat="41.599846181978" lon="1.962001415417976"><ele>622.8</ele><time>2026-05-03T09:00:55Z</time></trkpt><trkpt lat="41.5998660783102" lon="1.9618963384239316"><ele>626.0</ele><time>2026-05-03T09:00:56Z</time></trkpt><trkpt lat="41.59992257672308" lon="1.9617661427399367"><ele>625.5</ele><time>2026-05-03T09:00:58Z</time></trkpt><trkpt lat="41.59999414115982" lon="1.961651991726164"><ele>625.0</ele><time>2026-05-03T09:01:00Z</time></trkpt><trkpt lat="41.60008329498861" lon="1.961649451856702"><ele>624.5</ele><time>2026-05-03T09:01:02Z</time></trkpt><trkpt lat="41.60016248939966" lon="1.9616577358048348"><ele>624.0</ele><time>2026-05-03T09:01:03Z</time></trkpt><trkpt lat="41.60022067816133" lon="1.9615729801243662"><ele>623.5</ele><time>2026-05-03T09:01:05Z</time></trkpt><trkpt lat="41.600231028498534" lon="1.9614840612296678"><ele>623.0</ele><time>2026-05-03T09:01:06Z</time></trkpt><trkpt lat="41.600220585194215" lon="1.9613985478244638"><ele>623.0</ele><time>2026-05-03T09:01:07Z</time></trkpt><trkpt lat="41.600234810849365" lon="1.9612933330543687"><ele>623.0</ele><time>2026-05-03T09:01:09Z</time></trkpt><trkpt lat="41.60029347972772" lon="1.9612022363886668"><ele>623.0</ele><time>2026-05-03T09:01:15Z</time></trkpt><trkpt lat="41.60037227802836" lon="1.9611074801083264"><ele>623.0</ele><time>2026-05-03T09:01:19Z</time></trkpt><trkpt lat="41.60042048913762" lon="1.9610282747901675"><ele>623.0</ele><time>2026-05-03T09:01:23Z</time></trkpt><trkpt lat="41.60045276381011" lon="1.9609377230621716"><ele>623.0</ele><time>2026-05-03T09:01:25Z</time></trkpt><trkpt lat="41.600476595816446" lon="1.960806401708643"><ele>624.75</ele><time>2026-05-03T09:01:27Z</time></trkpt><trkpt lat="41.600557809804904" lon="1.9606152783343918"><ele>626.5</ele><time>2026-05-03T09:01:29Z</time></trkpt><trkpt lat="41.60066899094047" lon="1.9605645518337913"><ele>628.25</ele><time>2026-05-03T09:01:31Z</time></trkpt><trkpt lat="41.60079809309155" lon="1.9606248829425514"><ele>630.0</ele><time>2026-05-03T09:01:33Z</time></trkpt><trkpt lat="41.60088156823378" lon="1.960674139436843"><ele>630.0</ele><time>2026-05-03T09:01:34Z</time></trkpt><trkpt lat="41.60099547353564" lon="1.9606868056151638"><ele>630.0</ele><time>2026-05-03T09:01:35Z</time></trkpt><trkpt lat="41.601054362602405" lon="1.9606458966199278"><ele>630.0</ele><time>2026-05-03T09:01:36Z</time></trkpt><trkpt lat="41.60110870835184" lon="1.9605546862384096"><ele>630.0</ele><time>2026-05-03T09:01:38Z</time></trkpt><trkpt lat="41.601168611167225" lon="1.9605267849764898"><ele>630.0</ele><time>2026-05-03T09:01:39Z</time></trkpt><trkpt lat="41.601368259455555" lon="1.9603738824780657"><ele>631.3333333333334</ele><time>2026-05-03T09:01:41Z</time></trkpt><trkpt lat="41.601433497289705" lon="1.960294359846442"><ele>632.6666666666666</ele><time>2026-05-03T09:01:42Z</time></trkpt><trkpt lat="41.60151342371297" lon="1.960227386757461"><ele>634.0</ele><time>2026-05-03T09:01:43Z</time></trkpt><trkpt lat="41.60155781060048" lon="1.9601362145243577"><ele>635.3333333333333</ele><time>2026-05-03T09:01:44Z</time></trkpt><trkpt lat="41.60162260775204" lon="1.9600835004532244"><ele>636.6666666666666</ele><time>2026-05-03T09:01:45Z</time></trkpt><trkpt lat="41.60169174561051" lon="1.9599993714115627"><ele>638.0</ele><time>2026-05-03T09:01:46Z</time></trkpt><trkpt lat="41.6017611900015" lon="1.9599066071776894"><ele>638.0</ele><time>2026-05-03T09:01:47Z</time></trkpt><trkpt lat="41.60182488595795" lon="1.9598176838072308"><ele>638.0</ele><time>2026-05-03T09:01:48Z</time></trkpt><trkpt lat="41.60188323603988" lon="1.9597288047428494"><ele>638.0</ele><time>2026-05-03T09:01:49Z</time></trkpt><trkpt lat="41.6019352525939" lon="1.9596446148877702"><ele>638.0</ele><time>2026-05-03T09:01:50Z</time></trkpt><trkpt lat="41.60198871016654" lon="1.95955796842659"><ele>638.0</ele><time>2026-05-03T09:01:51Z</time></trkpt><trkpt lat="41.602046272079896" lon="1.9594691180551573"><ele>638.0</ele><time>2026-05-03T09:01:52Z</time></trkpt><trkpt lat="41.602112096942825" lon="1.9593764988666758"><ele>639.0</ele><time>2026-05-03T09:01:53Z</time></trkpt><trkpt lat="41.6021801408705" lon="1.95928954096235"><ele>640.0</ele><time>2026-05-03T09:01:54Z</time></trkpt><trkpt lat="41.602255356238786" lon="1.9591971629230363"><ele>641.0</ele><time>2026-05-03T09:01:55Z</time></trkpt><trkpt lat="41.60231899696029" lon="1.959093793750532"><ele>642.0</ele><time>2026-05-03T09:01:56Z</time></trkpt><trkpt lat="41.6023891399326" lon="1.9590086227493722"><ele>643.0</ele><time>2026-05-03T09:01:57Z</time></trkpt><trkpt lat="41.60247201184822" lon="1.95894929024873"><ele>643.0</ele><time>2026-05-03T09:01:58Z</time></trkpt><trkpt lat="41.60254182108845" lon="1.958861961901186"><ele>643.0</ele><time>2026-05-03T09:01:59Z</time></trkpt><trkpt lat="41.60263698706701" lon="1.9587670357537794"><ele>643.0</ele><time>2026-05-03T09:02:00Z</time></trkpt><trkpt lat="41.6027312975545" lon="1.9586966940346915"><ele>643.0</ele><time>2026-05-03T09:02:01Z</time></trkpt><trkpt lat="41.60280173935856" lon="1.9586342077198364"><ele>643.0</ele><time>2026-05-03T09:02:02Z</time></trkpt><trkpt lat="41.602871946625484" lon="1.9585891770397572"><ele>641.4</ele><time>2026-05-03T09:02:03Z</time></trkpt><trkpt lat="41.60297263708128" lon="1.9585625749591775"><ele>639.8</ele><time>2026-05-03T09:02:04Z</time></trkpt><trkpt lat="41.60307794852398" lon="1.9585316200056222"><ele>638.2</ele><time>2026-05-03T09:02:05Z</time></trkpt><trkpt lat="41.60318040720962" lon="1.958478408775499"><ele>636.6</ele><time>2026-05-03T09:02:06Z</time></trkpt><trkpt lat="41.60324335452356" lon="1.9583919363493267"><ele>635.0</ele><time>2026-05-03T09:02:07Z</time></trkpt><trkpt lat="41.60332255502499" lon="1.9583140180494825"><ele>638.8</ele><time>2026-05-03T09:02:08Z</time></trkpt><trkpt lat="41.60340346089215" lon="1.958270022419272"><ele>642.6</ele><time>2026-05-03T09:02:09Z</time></trkpt><trkpt lat="41.60346368204511" lon="1.958242059772918"><ele>646.4000000000001</ele><time>2026-05-03T09:02:10Z</time></trkpt><trkpt lat="41.60353559851049" lon="1.958203593227987"><ele>650.2</ele><time>2026-05-03T09:02:11Z</time></trkpt><trkpt lat="41.60363262507456" lon="1.9582313346983298"><ele>654.0</ele><time>2026-05-03T09:02:12Z</time></trkpt><trkpt lat="41.60375833921026" lon="1.95825072367907"><ele>654.6666666666666</ele><time>2026-05-03T09:02:13Z</time></trkpt><trkpt lat="41.60390637766007" lon="1.9582778168497252"><ele>655.3333333333333</ele><time>2026-05-03T09:02:14Z</time></trkpt><trkpt lat="41.6040650045636" lon="1.9583567241981874"><ele>656.0</ele><time>2026-05-03T09:02:15Z</time></trkpt><trkpt lat="41.60419221236235" lon="1.9584477116376555"><ele>653.75</ele><time>2026-05-03T09:02:16Z</time></trkpt><trkpt lat="41.60432925186992" lon="1.9585622829159406"><ele>651.5</ele><time>2026-05-03T09:02:17Z</time></trkpt><trkpt lat="41.60442348546596" lon="1.9586564374633175"><ele>649.25</ele><time>2026-05-03T09:02:18Z</time></trkpt><trkpt lat="41.60446830372485" lon="1.9587379053521088"><ele>647.0</ele><time>2026-05-03T09:02:19Z</time></trkpt><trkpt lat="41.604558297389325" lon="1.9588075363749844"><ele>647.0</ele><time>2026-05-03T09:02:20Z</time></trkpt><trkpt lat="41.60463175977751" lon="1.958910119522553"><ele>647.0</ele><time>2026-05-03T09:02:21Z</time></trkpt><trkpt lat="41.60472218022139" lon="1.9589522809903308"><ele>647.0</ele><time>2026-05-03T09:02:22Z</time></trkpt><trkpt lat="41.60483064705886" lon="1.9589736152901434"><ele>647.0</ele><time>2026-05-03T09:02:23Z</time></trkpt><trkpt lat="41.60493942261157" lon="1.9589749163330263"><ele>647.0</ele><time>2026-05-03T09:02:24Z</time></trkpt><trkpt lat="41.60504522218883" lon="1.9589581028368968"><ele>647.0</ele><time>2026-05-03T09:02:25Z</time></trkpt><trkpt lat="41.60516322422692" lon="1.9589474269341802"><ele>647.0</ele><time>2026-05-03T09:02:26Z</time></trkpt><trkpt lat="41.60530169137554" lon="1.958944496421342"><ele>647.0</ele><time>2026-05-03T09:02:27Z</time></trkpt><trkpt lat="41.60542783426659" lon="1.9589695554648143"><ele>647.0</ele><time>2026-05-03T09:02:28Z</time></trkpt><trkpt lat="41.605548869511544" lon="1.959008770977179"><ele>648.25</ele><time>2026-05-03T09:02:29Z</time></trkpt><trkpt lat="41.60566533579145" lon="1.959095396109578"><ele>649.5</ele><time>2026-05-03T09:02:30Z</time></trkpt><trkpt lat="41.60577823989854" lon="1.9591769953972695"><ele>650.75</ele><time>2026-05-03T09:02:31Z</time></trkpt><trkpt lat="41.605897518229455" lon="1.9592317858032742"><ele>652.0</ele><time>2026-05-03T09:02:32Z</time></trkpt><trkpt lat="41.60602510514006" lon="1.9592602050605488"><ele>653.2</ele><time>2026-05-03T09:02:33Z</time></trkpt><trkpt lat="41.60612683960322" lon="1.9592032460236408"><ele>654.4000000000001</ele><time>2026-05-03T09:02:34Z</time></trkpt><trkpt lat="41.606225710540514" lon="1.9591573601709211"><ele>655.5999999999999</ele><time>2026-05-03T09:02:35Z</time></trkpt><trkpt lat="41.606329990021294" lon="1.9591124619081726"><ele>656.8</ele><time>2026-05-03T09:02:36Z</time></trkpt><trkpt lat="41.60643037045209" lon="1.959052742882349"><ele>658.0</ele><time>2026-05-03T09:02:37Z</time></trkpt><trkpt lat="41.60652956841668" lon="1.9589618552655348"><ele>658.0</ele><time>2026-05-03T09:02:38Z</time></trkpt><trkpt lat="41.60661978858382" lon="1.9588631361517923"><ele>658.0</ele><time>2026-05-03T09:02:39Z</time></trkpt><trkpt lat="41.60669577958505" lon="1.958778182677305"><ele>658.0</ele><time>2026-05-03T09:02:40Z</time></trkpt><trkpt lat="41.60677984197377" lon="1.958693759812311"><ele>658.0</ele><time>2026-05-03T09:02:41Z</time></trkpt><trkpt lat="41.60687770513083" lon="1.9586192037786405"><ele>658.0</ele><time>2026-05-03T09:02:42Z</time></trkpt><trkpt lat="41.60696929105803" lon="1.9586039353122315"><ele>657.8</ele><time>2026-05-03T09:02:43Z</time></trkpt><trkpt lat="41.60705782669554" lon="1.9586113978045692"><ele>657.5999999999999</ele><time>2026-05-03T09:02:44Z</time></trkpt><trkpt lat="41.60715120352608" lon="1.9586613592862483"><ele>657.4000000000001</ele><time>2026-05-03T09:02:45Z</time></trkpt><trkpt lat="41.60724867561047" lon="1.9587351714502315"><ele>657.2</ele><time>2026-05-03T09:02:46Z</time></trkpt><trkpt lat="41.60735646788958" lon="1.9588136136116376"><ele>657.0</ele><time>2026-05-03T09:02:47Z</time></trkpt><trkpt lat="41.60748829975654" lon="1.9588903581576254"><ele>657.0</ele><time>2026-05-03T09:02:48Z</time></trkpt><trkpt lat="41.607653092375266" lon="1.9589506763153128"><ele>657.0</ele><time>2026-05-03T09:02:49Z</time></trkpt><trkpt lat="41.60780826791287" lon="1.9589775986101945"><ele>657.0</ele><time>2026-05-03T09:02:50Z</time></trkpt><trkpt lat="41.60794861752678" lon="1.9589613695447494"><ele>653.5</ele><time>2026-05-03T09:02:51Z</time></trkpt><trkpt lat="41.60807015693793" lon="1.9589282508516677"><ele>650.0</ele><time>2026-05-03T09:02:52Z</time></trkpt><trkpt lat="41.60819235843697" lon="1.9588513503906246"><ele>646.5</ele><time>2026-05-03T09:02:53Z</time></trkpt><trkpt lat="41.608303215540346" lon="1.958753188410185"><ele>643.0</ele><time>2026-05-03T09:02:54Z</time></trkpt><trkpt lat="41.60840515658463" lon="1.9586600796603106"><ele>643.0</ele><time>2026-05-03T09:02:55Z</time></trkpt><trkpt lat="41.60849235866876" lon="1.9585820229603934"><ele>643.0</ele><time>2026-05-03T09:02:56Z</time></trkpt><trkpt lat="41.60856935145096" lon="1.958519015922221"><ele>643.0</ele><time>2026-05-03T09:02:57Z</time></trkpt><trkpt lat="41.608647483104384" lon="1.9584544749799708"><ele>643.0</ele><time>2026-05-03T09:02:58Z</time></trkpt><trkpt lat="41.608721184809575" lon="1.9583631850239531"><ele>643.0</ele><time>2026-05-03T09:02:59Z</time></trkpt><trkpt lat="41.60879655523086" lon="1.9582518160877138"><ele>641.75</ele><time>2026-05-03T09:03:00Z</time></trkpt><trkpt lat="41.60885981941562" lon="1.9581272877993972"><ele>640.5</ele><time>2026-05-03T09:03:01Z</time></trkpt><trkpt lat="41.60893639563649" lon="1.9580011597143914"><ele>639.25</ele><time>2026-05-03T09:03:02Z</time></trkpt><trkpt lat="41.609032231645585" lon="1.9578790725406068"><ele>638.0</ele><time>2026-05-03T09:03:03Z</time></trkpt><trkpt lat="41.609121144926384" lon="1.9577413398337304"><ele>638.0</ele><time>2026-05-03T09:03:04Z</time></trkpt><trkpt lat="41.60921255579456" lon="1.9576041752374247"><ele>638.0</ele><time>2026-05-03T09:03:05Z</time></trkpt><trkpt lat="41.60931011077852" lon="1.9574723279275748"><ele>638.0</ele><time>2026-05-03T09:03:06Z</time></trkpt><trkpt lat="41.609403557530975" lon="1.9573475993515281"><ele>638.0</ele><time>2026-05-03T09:03:07Z</time></trkpt><trkpt lat="41.60948668820488" lon="1.9572238143410068"><ele>637.4</ele><time>2026-05-03T09:03:08Z</time></trkpt><trkpt lat="41.609563724892915" lon="1.9571012109838752"><ele>636.8</ele><time>2026-05-03T09:03:09Z</time></trkpt><trkpt lat="41.6096260264655" lon="1.956996984362962"><ele>636.2</ele><time>2026-05-03T09:03:10Z</time></trkpt><trkpt lat="41.60968006236705" lon="1.9569284706123542"><ele>635.6</ele><time>2026-05-03T09:03:11Z</time></trkpt><trkpt lat="41.609740135212434" lon="1.9568942627024868"><ele>635.0</ele><time>2026-05-03T09:03:12Z</time></trkpt><trkpt lat="41.60984473847496" lon="1.9568467315562443"><ele>634.9999999999999</ele><time>2026-05-03T09:03:14Z</time></trkpt><trkpt lat="41.60985799446444" lon="1.9567602223619764"><ele>635.0</ele><time>2026-05-03T09:03:17Z</time></trkpt><trkpt lat="41.60988388330561" lon="1.9568430835971906"><ele>635.0</ele><time>2026-05-03T09:04:02Z</time></trkpt><trkpt lat="41.60981735582616" lon="1.9568841589794383"><ele>635.0</ele><time>2026-05-03T09:04:04Z</time></trkpt><trkpt lat="41.60975586910156" lon="1.9569092995006165"><ele>635.0</ele><time>2026-05-03T09:04:05Z</time></trkpt><trkpt lat="41.6096847452297" lon="1.956932649161406"><ele>634.9999999999999</ele><time>2026-05-03T09:04:06Z</time></trkpt><trkpt lat="41.609594011897805" lon="1.9569599587024742"><ele>635.0</ele><time>2026-05-03T09:04:07Z</time></trkpt><trkpt lat="41.60949912206241" lon="1.9569875694346024"><ele>638.1666666666666</ele><time>2026-05-03T09:04:08Z</time></trkpt><trkpt lat="41.60943084415921" lon="1.9570092895781306"><ele>641.3333333333333</ele><time>2026-05-03T09:04:09Z</time></trkpt><trkpt lat="41.609355452876414" lon="1.9570029397986441"><ele>644.5</ele><time>2026-05-03T09:04:11Z</time></trkpt><trkpt lat="41.60924737036886" lon="1.9569645844126433"><ele>647.6666666666666</ele><time>2026-05-03T09:04:13Z</time></trkpt><trkpt lat="41.60918534534197" lon="1.9569838493190492"><ele>650.8333333333334</ele><time>2026-05-03T09:04:14Z</time></trkpt><trkpt lat="41.60911465306528" lon="1.957004415412471"><ele>654.0</ele><time>2026-05-03T09:04:22Z</time></trkpt><trkpt lat="41.60903524049619" lon="1.9570162174464352"><ele>654.0</ele><time>2026-05-03T09:04:31Z</time></trkpt><trkpt lat="41.60897660291697" lon="1.9570508969931282"><ele>654.0</ele><time>2026-05-03T09:04:35Z</time></trkpt><trkpt lat="41.60897911741841" lon="1.9571673778547087"><ele>654.0</ele><time>2026-05-03T09:04:38Z</time></trkpt><trkpt lat="41.60893463308229" lon="1.957256454346258"><ele>654.0</ele><time>2026-05-03T09:04:41Z</time></trkpt><trkpt lat="41.60888387338017" lon="1.9573068205656825"><ele>654.0</ele><time>2026-05-03T09:04:44Z</time></trkpt><trkpt lat="41.608824310906726" lon="1.9573383272996678"><ele>654.0</ele><time>2026-05-03T09:04:50Z</time></trkpt><trkpt lat="41.60879334584707" lon="1.9574285354189578"><ele>654.0</ele><time>2026-05-03T09:05:11Z</time></trkpt><trkpt lat="41.60873796519454" lon="1.9574905892007743"><ele>654.0</ele><time>2026-05-03T09:05:15Z</time></trkpt><trkpt lat="41.60868713715062" lon="1.9575522508130068"><ele>654.0</ele><time>2026-05-03T09:05:21Z</time></trkpt><trkpt lat="41.60862896677337" lon="1.957595641048719"><ele>654.0</ele><time>2026-05-03T09:05:24Z</time></trkpt><trkpt lat="41.608585600090386" lon="1.9576646596760297"><ele>654.0</ele><time>2026-05-03T09:05:26Z</time></trkpt><trkpt lat="41.60860163434333" lon="1.9575767170384744"><ele>654.0</ele><time>2026-05-03T09:05:58Z</time></trkpt><trkpt lat="41.60865965327727" lon="1.9575269895787604"><ele>654.0</ele><time>2026-05-03T09:06:03Z</time></trkpt><trkpt lat="41.608731130901496" lon="1.957520208576958"><ele>654.0</ele><time>2026-05-03T09:06:08Z</time></trkpt><trkpt lat="41.608772468761146" lon="1.9574334590158926"><ele>654.0</ele><time>2026-05-03T09:06:13Z</time></trkpt><trkpt lat="41.60882331900444" lon="1.9573593715847837"><ele>654.0</ele><time>2026-05-03T09:06:19Z</time></trkpt><trkpt lat="41.60888757831233" lon="1.9573029324233981"><ele>654.0</ele><time>2026-05-03T09:06:22Z</time></trkpt><trkpt lat="41.60893041791616" lon="1.9572146142459088"><ele>654.0</ele><time>2026-05-03T09:06:31Z</time></trkpt><trkpt lat="41.60896007993902" lon="1.9571357308413246"><ele>654.0</ele><time>2026-05-03T09:06:34Z</time></trkpt><trkpt lat="41.608972029058684" lon="1.9570484391879603"><ele>654.0</ele><time>2026-05-03T09:06:40Z</time></trkpt><trkpt lat="41.609037734616976" lon="1.9570117347553904"><ele>654.0</ele><time>2026-05-03T09:06:46Z</time></trkpt><trkpt lat="41.60910749974919" lon="1.9569629619175268"><ele>654.0</ele><time>2026-05-03T09:06:50Z</time></trkpt><trkpt lat="41.609190159550714" lon="1.9569776833798678"><ele>654.0</ele><time>2026-05-03T09:06:54Z</time></trkpt><trkpt lat="41.60927847473939" lon="1.9569906623753552"><ele>654.0</ele><time>2026-05-03T09:06:57Z</time></trkpt><trkpt lat="41.60935197797779" lon="1.9569952426226696"><ele>654.0</ele><time>2026-05-03T09:06:59Z</time></trkpt><trkpt lat="41.60943182832028" lon="1.9569815715275078"><ele>654.0</ele><time>2026-05-03T09:07:01Z</time></trkpt><trkpt lat="41.60949699741577" lon="1.9569952216214535"><ele>654.0</ele><time>2026-05-03T09:07:03Z</time></trkpt><trkpt lat="41.60957056723164" lon="1.9569548347032664"><ele>654.0</ele><time>2026-05-03T09:07:08Z</time></trkpt><trkpt lat="41.6096341809959" lon="1.956972199090741"><ele>654.0</ele><time>2026-05-03T09:07:10Z</time></trkpt><trkpt lat="41.609610536662736" lon="1.9570565411714729"><ele>654.0</ele><time>2026-05-03T09:07:13Z</time></trkpt><trkpt lat="41.60952760360846" lon="1.9571599061024423"><ele>654.0</ele><time>2026-05-03T09:07:15Z</time></trkpt><trkpt lat="41.60947021015541" lon="1.9572490788707368"><ele>654.0</ele><time>2026-05-03T09:07:16Z</time></trkpt><trkpt lat="41.609423438049085" lon="1.9573256063465443"><ele>654.0</ele><time>2026-05-03T09:07:17Z</time></trkpt><trkpt lat="41.609357747318185" lon="1.9573807707753497"><ele>654.0</ele><time>2026-05-03T09:07:18Z</time></trkpt><trkpt lat="41.609332538585896" lon="1.9574803432216286"><ele>654.0</ele><time>2026-05-03T09:07:19Z</time></trkpt><trkpt lat="41.60928069820056" lon="1.9575556902836566"><ele>654.0</ele><time>2026-05-03T09:07:20Z</time></trkpt><trkpt lat="41.60922362067046" lon="1.9576289252045664"><ele>654.0</ele><time>2026-05-03T09:07:21Z</time></trkpt><trkpt lat="41.60916018810874" lon="1.9577032937962882"><ele>654.0</ele><time>2026-05-03T09:07:22Z</time></trkpt><trkpt lat="41.60908478635971" lon="1.9577918056463715"><ele>654.0</ele><time>2026-05-03T09:07:23Z</time></trkpt><trkpt lat="41.6090089842371" lon="1.957894355823618"><ele>650.0</ele><time>2026-05-03T09:07:24Z</time></trkpt><trkpt lat="41.60892449911358" lon="1.958012846344647"><ele>646.0</ele><time>2026-05-03T09:07:25Z</time></trkpt><trkpt lat="41.6088393518565" lon="1.9581366889942917"><ele>642.0</ele><time>2026-05-03T09:07:26Z</time></trkpt><trkpt lat="41.608746802399764" lon="1.9582769711099532"><ele>638.0</ele><time>2026-05-03T09:07:27Z</time></trkpt><trkpt lat="41.608664274941674" lon="1.9584032530995492"><ele>639.25</ele><time>2026-05-03T09:07:28Z</time></trkpt><trkpt lat="41.60857475920757" lon="1.9584896806259366"><ele>640.5</ele><time>2026-05-03T09:07:29Z</time></trkpt><trkpt lat="41.60846658198227" lon="1.9585640418540269"><ele>641.75</ele><time>2026-05-03T09:07:30Z</time></trkpt><trkpt lat="41.60834444618854" lon="1.9586460684684488"><ele>643.0</ele><time>2026-05-03T09:07:31Z</time></trkpt><trkpt lat="41.608223825076976" lon="1.9587382544234266"><ele>643.0</ele><time>2026-05-03T09:07:32Z</time></trkpt><trkpt lat="41.60812391070816" lon="1.9588143110044571"><ele>643.0</ele><time>2026-05-03T09:07:33Z</time></trkpt><trkpt lat="41.60802759714454" lon="1.9588696304904183"><ele>643.0</ele><time>2026-05-03T09:07:34Z</time></trkpt><trkpt lat="41.607924110300424" lon="1.9589017115639957"><ele>643.0</ele><time>2026-05-03T09:07:35Z</time></trkpt><trkpt lat="41.60781908957882" lon="1.9589115582269245"><ele>643.0</ele><time>2026-05-03T09:07:36Z</time></trkpt><trkpt lat="41.607709423136065" lon="1.9588931815577986"><ele>645.8</ele><time>2026-05-03T09:07:37Z</time></trkpt><trkpt lat="41.60760550796657" lon="1.9588687987679303"><ele>648.5999999999999</ele><time>2026-05-03T09:07:38Z</time></trkpt><trkpt lat="41.60749805379326" lon="1.9588326509504674"><ele>651.4000000000001</ele><time>2026-05-03T09:07:39Z</time></trkpt><trkpt lat="41.607393468957" lon="1.9588019394818008"><ele>654.2</ele><time>2026-05-03T09:07:40Z</time></trkpt><trkpt lat="41.607296755209845" lon="1.9587574487480672"><ele>657.0</ele><time>2026-05-03T09:07:41Z</time></trkpt><trkpt lat="41.607202750733315" lon="1.9586940680445095"><ele>657.0</ele><time>2026-05-03T09:07:42Z</time></trkpt><trkpt lat="41.60711050434594" lon="1.958647566580572"><ele>657.0</ele><time>2026-05-03T09:07:43Z</time></trkpt><trkpt lat="41.60700948855379" lon="1.9586060249315311"><ele>657.0</ele><time>2026-05-03T09:07:44Z</time></trkpt><trkpt lat="41.606907589943084" lon="1.9585815740958337"><ele>657.0</ele><time>2026-05-03T09:07:45Z</time></trkpt><trkpt lat="41.606802715152085" lon="1.9585819192734215"><ele>657.0</ele><time>2026-05-03T09:07:46Z</time></trkpt><trkpt lat="41.606704992804424" lon="1.9586147532907687"><ele>657.25</ele><time>2026-05-03T09:07:47Z</time></trkpt><trkpt lat="41.606621776715386" lon="1.958723613326509"><ele>657.5</ele><time>2026-05-03T09:07:48Z</time></trkpt><trkpt lat="41.606530293094224" lon="1.9588621616626434"><ele>657.75</ele><time>2026-05-03T09:07:49Z</time></trkpt><trkpt lat="41.606432681017004" lon="1.95900230075939"><ele>658.0</ele><time>2026-05-03T09:07:50Z</time></trkpt><trkpt lat="41.606312975260565" lon="1.9590988962732558"><ele>658.0</ele><time>2026-05-03T09:07:51Z</time></trkpt><trkpt lat="41.60617719476894" lon="1.9591767528029707"><ele>658.0</ele><time>2026-05-03T09:07:52Z</time></trkpt><trkpt lat="41.60604699604647" lon="1.9592183674906407"><ele>658.0</ele><time>2026-05-03T09:07:53Z</time></trkpt><trkpt lat="41.605901668359884" lon="1.959236212789052"><ele>658.0</ele><time>2026-05-03T09:07:54Z</time></trkpt><trkpt lat="41.60576255165479" lon="1.9592168100443847"><ele>656.5</ele><time>2026-05-03T09:07:55Z</time></trkpt><trkpt lat="41.605652542868896" lon="1.959105940830074"><ele>655.0</ele><time>2026-05-03T09:07:56Z</time></trkpt><trkpt lat="41.6055206829174" lon="1.9590374542835818"><ele>653.5</ele><time>2026-05-03T09:07:57Z</time></trkpt><trkpt lat="41.60537521344255" lon="1.9589696613997571"><ele>652.0</ele><time>2026-05-03T09:07:58Z</time></trkpt><trkpt lat="41.605242155065035" lon="1.9589289896744815"><ele>650.75</ele><time>2026-05-03T09:07:59Z</time></trkpt><trkpt lat="41.6051180589131" lon="1.9589444985028899"><ele>649.5</ele><time>2026-05-03T09:08:00Z</time></trkpt><trkpt lat="41.60499267537312" lon="1.9589208732073016"><ele>648.25</ele><time>2026-05-03T09:08:01Z</time></trkpt><trkpt lat="41.6048629656713" lon="1.9589138295084272"><ele>647.0</ele><time>2026-05-03T09:08:02Z</time></trkpt><trkpt lat="41.604741692691555" lon="1.9589087522623032"><ele>647.0</ele><time>2026-05-03T09:08:03Z</time></trkpt><trkpt lat="41.60464734756595" lon="1.9588387609030937"><ele>647.0</ele><time>2026-05-03T09:08:04Z</time></trkpt><trkpt lat="41.604559199497636" lon="1.9587735317701203"><ele>647.0</ele><time>2026-05-03T09:08:05Z</time></trkpt><trkpt lat="41.60448329740005" lon="1.9586958045797107"><ele>647.0</ele><time>2026-05-03T09:08:06Z</time></trkpt><trkpt lat="41.604409843140225" lon="1.9585867440979854"><ele>647.0</ele><time>2026-05-03T09:08:07Z</time></trkpt><trkpt lat="41.60431447156757" lon="1.95849498905808"><ele>645.4</ele><time>2026-05-03T09:08:08Z</time></trkpt><trkpt lat="41.604198351311865" lon="1.9584206148125418"><ele>643.8000000000001</ele><time>2026-05-03T09:08:09Z</time></trkpt><trkpt lat="41.604095623814594" lon="1.9583439056988075"><ele>642.2</ele><time>2026-05-03T09:08:10Z</time></trkpt><trkpt lat="41.60400499389271" lon="1.9582891905446609"><ele>640.6</ele><time>2026-05-03T09:08:11Z</time></trkpt><trkpt lat="41.60390821242096" lon="1.9582439343300018"><ele>639.0</ele><time>2026-05-03T09:08:12Z</time></trkpt><trkpt lat="41.60380282288868" lon="1.95821345846688"><ele>642.0</ele><time>2026-05-03T09:08:13Z</time></trkpt><trkpt lat="41.603700060585595" lon="1.9581989768101915"><ele>645.0</ele><time>2026-05-03T09:08:14Z</time></trkpt><trkpt lat="41.60360026962807" lon="1.9581921867418037"><ele>648.0</ele><time>2026-05-03T09:08:15Z</time></trkpt><trkpt lat="41.60350557405255" lon="1.9581998072942743"><ele>651.0</ele><time>2026-05-03T09:08:16Z</time></trkpt><trkpt lat="41.603417706702324" lon="1.9582193247508504"><ele>654.0</ele><time>2026-05-03T09:08:17Z</time></trkpt><trkpt lat="41.603335436468285" lon="1.9582688534729433"><ele>654.0</ele><time>2026-05-03T09:08:18Z</time></trkpt><trkpt lat="41.60325810415151" lon="1.9583392225164462"><ele>654.0</ele><time>2026-05-03T09:08:19Z</time></trkpt><trkpt lat="41.603174381982974" lon="1.95841411701972"><ele>654.0</ele><time>2026-05-03T09:08:20Z</time></trkpt><trkpt lat="41.60308129119098" lon="1.9584801348507244"><ele>654.0</ele><time>2026-05-03T09:08:21Z</time></trkpt><trkpt lat="41.60297701818155" lon="1.9585274799819314"><ele>654.0</ele><time>2026-05-03T09:08:22Z</time></trkpt><trkpt lat="41.602881558700076" lon="1.9585636939853643"><ele>651.8000000000001</ele><time>2026-05-03T09:08:23Z</time></trkpt><trkpt lat="41.60278957980939" lon="1.9586122798987027"><ele>649.6</ele><time>2026-05-03T09:08:24Z</time></trkpt><trkpt lat="41.60269341774881" lon="1.9586822969477669"><ele>647.4</ele><time>2026-05-03T09:08:25Z</time></trkpt><trkpt lat="41.60259866932399" lon="1.9587706472442072"><ele>645.2</ele><time>2026-05-03T09:08:26Z</time></trkpt><trkpt lat="41.60250590038383" lon="1.9588750518625204"><ele>643.0</ele><time>2026-05-03T09:08:27Z</time></trkpt><trkpt lat="41.602395066472404" lon="1.9589678698619646"><ele>643.0</ele><time>2026-05-03T09:08:28Z</time></trkpt><trkpt lat="41.60231101208499" lon="1.9590869308006655"><ele>643.0</ele><time>2026-05-03T09:08:29Z</time></trkpt><trkpt lat="41.60221546985899" lon="1.9591911433703295"><ele>643.0</ele><time>2026-05-03T09:08:30Z</time></trkpt><trkpt lat="41.60212587548157" lon="1.9593031458686712"><ele>643.0</ele><time>2026-05-03T09:08:31Z</time></trkpt><trkpt lat="41.60204440006305" lon="1.9594199467284905"><ele>642.0</ele><time>2026-05-03T09:08:32Z</time></trkpt><trkpt lat="41.60196451360945" lon="1.9595395430813067"><ele>641.0</ele><time>2026-05-03T09:08:33Z</time></trkpt><trkpt lat="41.601895512674105" lon="1.9596516306826746"><ele>640.0</ele><time>2026-05-03T09:08:34Z</time></trkpt><trkpt lat="41.601833788189865" lon="1.9597616471839012"><ele>639.0</ele><time>2026-05-03T09:08:35Z</time></trkpt><trkpt lat="41.601769734495946" lon="1.9598612182566455"><ele>638.0</ele><time>2026-05-03T09:08:36Z</time></trkpt><trkpt lat="41.60170431744822" lon="1.959949567996537"><ele>638.0</ele><time>2026-05-03T09:08:37Z</time></trkpt><trkpt lat="41.60163159323244" lon="1.9600195002808654"><ele>638.0</ele><time>2026-05-03T09:08:38Z</time></trkpt><trkpt lat="41.60156728454525" lon="1.9600870899668346"><ele>638.0</ele><time>2026-05-03T09:08:39Z</time></trkpt><trkpt lat="41.60151387781008" lon="1.96016151539241"><ele>638.0</ele><time>2026-05-03T09:08:40Z</time></trkpt><trkpt lat="41.6014761101823" lon="1.9602456856070622"><ele>638.0</ele><time>2026-05-03T09:08:41Z</time></trkpt><trkpt lat="41.601433491047054" lon="1.9603328776333944"><ele>638.0</ele><time>2026-05-03T09:08:42Z</time></trkpt><trkpt lat="41.60135009361879" lon="1.9603728425335516"><ele>636.6666666666666</ele><time>2026-05-03T09:08:43Z</time></trkpt><trkpt lat="41.60128174081102" lon="1.9604429479787029"><ele>635.3333333333333</ele><time>2026-05-03T09:08:44Z</time></trkpt><trkpt lat="41.60120959224029" lon="1.9604930022037719"><ele>634.0</ele><time>2026-05-03T09:08:45Z</time></trkpt><trkpt lat="41.60113732646253" lon="1.960514595525487"><ele>632.6666666666666</ele><time>2026-05-03T09:08:46Z</time></trkpt><trkpt lat="41.601075195843876" lon="1.9605657826579082"><ele>631.3333333333334</ele><time>2026-05-03T09:08:47Z</time></trkpt><trkpt lat="41.600998013008784" lon="1.9606066635233799"><ele>630.0</ele><time>2026-05-03T09:08:49Z</time></trkpt><trkpt lat="41.600927675815015" lon="1.960642930649347"><ele>630.0</ele><time>2026-05-03T09:08:52Z</time></trkpt><trkpt lat="41.600841256036844" lon="1.9607505856740313"><ele>630.0</ele><time>2026-05-03T09:08:54Z</time></trkpt><trkpt lat="41.60082495097242" lon="1.9608443349377134"><ele>630.0</ele><time>2026-05-03T09:08:56Z</time></trkpt><trkpt lat="41.60078408679409" lon="1.9609497198934878"><ele>630.0</ele><time>2026-05-03T09:08:58Z</time></trkpt><trkpt lat="41.60073384964561" lon="1.9611339656703655"><ele>630.0</ele><time>2026-05-03T09:09:01Z</time></trkpt><trkpt lat="41.600699609487876" lon="1.9612102852237563"><ele>626.0</ele><time>2026-05-03T09:09:02Z</time></trkpt><trkpt lat="41.60063464960307" lon="1.9613298652251931"><ele>622.0</ele><time>2026-05-03T09:09:04Z</time></trkpt><trkpt lat="41.60038384821502" lon="1.9611305574261122"><ele>618.0</ele><time>2026-05-03T09:09:07Z</time></trkpt><trkpt lat="41.60034382749185" lon="1.9612293453887706"><ele>619.0</ele><time>2026-05-03T09:09:11Z</time></trkpt><trkpt lat="41.60031587964615" lon="1.961313930832846"><ele>620.0</ele><time>2026-05-03T09:09:15Z</time></trkpt><trkpt lat="41.60029565905873" lon="1.9613989399080445"><ele>621.0</ele><time>2026-05-03T09:09:17Z</time></trkpt><trkpt lat="41.600248982202864" lon="1.9614993763544346"><ele>622.0</ele><time>2026-05-03T09:09:20Z</time></trkpt><trkpt lat="41.60019921571727" lon="1.9615667059725872"><ele>623.0</ele><time>2026-05-03T09:09:22Z</time></trkpt><trkpt lat="41.59994745754609" lon="1.9617452928719377"><ele>623.6</ele><time>2026-05-03T09:09:24Z</time></trkpt><trkpt lat="41.599904475848156" lon="1.961894562106755"><ele>624.1999999999999</ele><time>2026-05-03T09:09:26Z</time></trkpt><trkpt lat="41.59983766157601" lon="1.9620013881930967"><ele>624.8</ele><time>2026-05-03T09:09:27Z</time></trkpt><trkpt lat="41.59977288225435" lon="1.962096164965177"><ele>625.4</ele><time>2026-05-03T09:09:28Z</time></trkpt><trkpt lat="41.59972554291971" lon="1.9622062467381307"><ele>626.0</ele><time>2026-05-03T09:09:29Z</time></trkpt><trkpt lat="41.59965252691938" lon="1.962336886191043"><ele>626.0</ele><time>2026-05-03T09:09:30Z</time></trkpt><trkpt lat="41.59955469188075" lon="1.9624412306925416"><ele>626.0</ele><time>2026-05-03T09:09:31Z</time></trkpt><trkpt lat="41.59943476569812" lon="1.9625599433254302"><ele>626.0</ele><time>2026-05-03T09:09:32Z</time></trkpt><trkpt lat="41.59931265819713" lon="1.9626752607697775"><ele>626.0</ele><time>2026-05-03T09:09:33Z</time></trkpt><trkpt lat="41.59919353930433" lon="1.9627610696595417"><ele>622.0</ele><time>2026-05-03T09:09:34Z</time></trkpt><trkpt lat="41.59908372340413" lon="1.962868016771188"><ele>618.0</ele><time>2026-05-03T09:09:35Z</time></trkpt><trkpt lat="41.598983254944805" lon="1.9629798139927066"><ele>614.0</ele><time>2026-05-03T09:09:36Z</time></trkpt><trkpt lat="41.59886775775534" lon="1.9630707809838037"><ele>610.0</ele><time>2026-05-03T09:09:37Z</time></trkpt><trkpt lat="41.59873819370192" lon="1.9631653085530008"><ele>609.75</ele><time>2026-05-03T09:09:38Z</time></trkpt><trkpt lat="41.5986220932851" lon="1.963242871646734"><ele>609.5</ele><time>2026-05-03T09:09:39Z</time></trkpt><trkpt lat="41.59851083473429" lon="1.9633106452992095"><ele>609.25</ele><time>2026-05-03T09:09:40Z</time></trkpt><trkpt lat="41.59840527740937" lon="1.96336812557938"><ele>609.0</ele><time>2026-05-03T09:09:41Z</time></trkpt><trkpt lat="41.598323567848844" lon="1.9634129267184182"><ele>608.6</ele><time>2026-05-03T09:09:42Z</time></trkpt><trkpt lat="41.59826786286551" lon="1.9634898145742012"><ele>608.2</ele><time>2026-05-03T09:09:44Z</time></trkpt><trkpt lat="41.59821619985967" lon="1.9635559194879597"><ele>607.8000000000001</ele><time>2026-05-03T09:09:45Z</time></trkpt><trkpt lat="41.59813232752869" lon="1.963684421219055"><ele>607.4</ele><time>2026-05-03T09:09:46Z</time></trkpt><trkpt lat="41.59805280861086" lon="1.9638264269873764"><ele>607.0</ele><time>2026-05-03T09:09:47Z</time></trkpt><trkpt lat="41.59799532270247" lon="1.9639461069782034"><ele>607.0</ele><time>2026-05-03T09:09:48Z</time></trkpt><trkpt lat="41.59794783792087" lon="1.9640296197069937"><ele>607.0</ele><time>2026-05-03T09:09:49Z</time></trkpt><trkpt lat="41.5978963597496" lon="1.964136706822752"><ele>607.0</ele><time>2026-05-03T09:09:51Z</time></trkpt><trkpt lat="41.59786932154424" lon="1.9642570190418107"><ele>607.0</ele><time>2026-05-03T09:09:53Z</time></trkpt><trkpt lat="41.597860445781656" lon="1.9643667394954663"><ele>607.0</ele><time>2026-05-03T09:09:55Z</time></trkpt><trkpt lat="41.59785947025819" lon="1.964485367968596"><ele>607.0</ele><time>2026-05-03T09:09:58Z</time></trkpt><trkpt lat="41.59786068484988" lon="1.9643929835079146"><ele>606.9999999999999</ele><time>2026-05-03T09:21:49Z</time></trkpt><trkpt lat="41.5978400082112" lon="1.9643075468592994"><ele>607.0</ele><time>2026-05-03T09:21:56Z</time></trkpt><trkpt lat="41.59787062700306" lon="1.9642043873665738"><ele>607.0</ele><time>2026-05-03T09:22:03Z</time></trkpt><trkpt lat="41.59786260155032" lon="1.964101631369972"><ele>607.0</ele><time>2026-05-03T09:22:06Z</time></trkpt><trkpt lat="41.59788124310664" lon="1.9640052882541386"><ele>607.0</ele><time>2026-05-03T09:22:08Z</time></trkpt><trkpt lat="41.59791009235386" lon="1.9639278475346806"><ele>606.9999999999999</ele><time>2026-05-03T09:22:10Z</time></trkpt><trkpt lat="41.5979526170262" lon="1.963847429530021"><ele>607.0</ele><time>2026-05-03T09:22:12Z</time></trkpt><trkpt lat="41.59801331370993" lon="1.9637536626244945"><ele>607.0</ele><time>2026-05-03T09:22:14Z</time></trkpt><trkpt lat="41.598049063679866" lon="1.9636665675828358"><ele>607.0</ele><time>2026-05-03T09:22:16Z</time></trkpt><trkpt lat="41.59809607121053" lon="1.963567383970747"><ele>607.0</ele><time>2026-05-03T09:22:20Z</time></trkpt><trkpt lat="41.598149123238045" lon="1.9635167702444143"><ele>607.0</ele><time>2026-05-03T09:22:24Z</time></trkpt><trkpt lat="41.598212646421516" lon="1.9634452717883417"><ele>607.0</ele><time>2026-05-03T09:22:29Z</time></trkpt><trkpt lat="41.598285980443926" lon="1.9633817931484725"><ele>607.0</ele><time>2026-05-03T09:22:33Z</time></trkpt><trkpt lat="41.59835703615577" lon="1.9633539803875537"><ele>607.2857142857142</ele><time>2026-05-03T09:22:36Z</time></trkpt><trkpt lat="41.59843547565591" lon="1.9633371893089564"><ele>607.5714285714286</ele><time>2026-05-03T09:22:38Z</time></trkpt><trkpt lat="41.598524158759666" lon="1.9633059154250474"><ele>607.8571428571429</ele><time>2026-05-03T09:22:40Z</time></trkpt><trkpt lat="41.598591426054455" lon="1.9632846304233873"><ele>608.1428571428571</ele><time>2026-05-03T09:22:42Z</time></trkpt><trkpt lat="41.59864905400062" lon="1.9632283500608023"><ele>608.4285714285714</ele><time>2026-05-03T09:22:46Z</time></trkpt><trkpt lat="41.598707670622844" lon="1.9631824026769862"><ele>608.7142857142857</ele><time>2026-05-03T09:22:50Z</time></trkpt><trkpt lat="41.598764473175166" lon="1.9631453986493568"><ele>609.0</ele><time>2026-05-03T09:22:54Z</time></trkpt><trkpt lat="41.59882900824643" lon="1.9631137260083424"><ele>609.1428571428571</ele><time>2026-05-03T09:22:58Z</time></trkpt><trkpt lat="41.59889079044374" lon="1.9630767314486817"><ele>609.2857142857142</ele><time>2026-05-03T09:23:03Z</time></trkpt><trkpt lat="41.59894595952588" lon="1.9630346133174152"><ele>609.4285714285714</ele><time>2026-05-03T09:23:07Z</time></trkpt><trkpt lat="41.59900698912046" lon="1.9629737085810992"><ele>609.5714285714286</ele><time>2026-05-03T09:23:12Z</time></trkpt><trkpt lat="41.59907042739351" lon="1.962939507307107"><ele>609.7142857142857</ele><time>2026-05-03T09:23:17Z</time></trkpt><trkpt lat="41.59913819563865" lon="1.96293217214693"><ele>609.8571428571429</ele><time>2026-05-03T09:23:21Z</time></trkpt><trkpt lat="41.59921246137178" lon="1.9629623534318932"><ele>610.0</ele><time>2026-05-03T09:23:26Z</time></trkpt><trkpt lat="41.59928226355365" lon="1.962982437110178"><ele>610.0</ele><time>2026-05-03T09:24:00Z</time></trkpt><trkpt lat="41.599348104452936" lon="1.9630355175814864"><ele>610.0</ele><time>2026-05-03T09:24:06Z</time></trkpt><trkpt lat="41.599414457219396" lon="1.9630825119972484"><ele>610.0</ele><time>2026-05-03T09:24:10Z</time></trkpt><trkpt lat="41.599471114080345" lon="1.963129283750252"><ele>610.0</ele><time>2026-05-03T09:24:15Z</time></trkpt><trkpt lat="41.59954498948639" lon="1.9631629331542217"><ele>610.0</ele><time>2026-05-03T09:24:20Z</time></trkpt><trkpt lat="41.59961857661689" lon="1.9631899745530748"><ele>610.0</ele><time>2026-05-03T09:24:27Z</time></trkpt><trkpt lat="41.599688815727696" lon="1.9632146615191997"><ele>610.0</ele><time>2026-05-03T09:24:36Z</time></trkpt><trkpt lat="41.599752067422" lon="1.96321727124913"><ele>618.0</ele><time>2026-05-03T09:24:40Z</time></trkpt><trkpt lat="41.599824457364086" lon="1.9632281566087582"><ele>618.0</ele><time>2026-05-03T09:24:45Z</time></trkpt><trkpt lat="41.59988742436313" lon="1.963265897704552"><ele>618.0</ele><time>2026-05-03T09:24:50Z</time></trkpt><trkpt lat="41.599943218130996" lon="1.9633073443225286"><ele>618.0</ele><time>2026-05-03T09:25:02Z</time></trkpt></trkseg></trk></gpx>